עמוד ראשי
METAR-TAF:

METAR-TAF

שדות תעופה :

נמל התעופה הבינלאומי נורמן מנלי

קינגסטון, ג'מייקה

קו רוחב: 17-56N, קו אורך: 076-47W, גובה: 3מטר

תצפית מזג אוויר נוכחית

הדו"ח נערך לפני 26דקות, בשעה 10:00 UTC
רוח 7קשר מכיוון צפון/צפון-מערב
טמפרטורת 28 צלסיוס
לחות 79%
לחץ 1012 hPa
ראות 10 קילומטר או יותר
מעט עננים בגובה 2200רגל

METAR: MKJP 271000Z 34007KT 9999 FEW022 28/24 Q1012

זמן: 05:26 (10:26 UTC)

תחזית

הדו"ח נערך לפני 5 שעות ו 11דקות, בשעה 05:15 UTC
תחזית בתוקף מ 27 ב 06 UTC עד 28 ב 06 UTC
רוח 5קשר מכיוון צפון
ראות 10 קילומטר או יותר
מעט עננים בגובה 2200רגל
יעשה מ
27 ב 14 UTC עד 27 ב 16 UTC
רוח 14קשר מכיוון דרום-מזרח
הסתברות 30% :
זמנית מ -
27 ב 17 UTC עד 27 ב 24 UTC
עננים פזורים בגובה 2000רגל
עננים פזורים בגובה 2200רגל , קומולונימבוס.
סופת רעמים, גשם
יעשה מ
28 ב 02 UTC עד 28 ב 04 UTC
רוח 6קשר מכיוון צפון/צפון-מערב

TAF: MKJP 270515Z 2706/2806 35005KT 9999 FEW022 BECMG 2714/2716 14014KT PROB30 TEMPO 2717/2724 TSRA SCT020 SCT022CB BECMG 2802/2804 34006KT

תצפיות ותחזיות מזג אוויר לגבי יותר מ- 4,000 שדות תעופה ברחבי העולם. דוחות METAR ו- TAF.

התחנות הזמינות מסומנות בנקודות צהובות ואדומות על גבי המפה.

העבר את העכבר לנקודה הצבעונית על מנת לראות את שם התחנה.

לאחר מכן, לחץ כדי לראות את תוכן ואת תחזיות מזג האוויר.

כדי לשנות את המפה: לחץ על הכפתורים הירוקים עם הפלוס השחור כדי להתקרב; על הכפתור הירוק עם המקף כדי להתרחק; או בחיצים הירוקים למפות סמוכות.


METAR-TAF: